Time;durP1;ratioP1;P1;durP2;ratioP2;P2;SDS_P1;SDS_P2;PMS_P1;PMS_P2;Temp;Humidity;BMP_temperature;BMP_pressure;BME280_temperature;BME280_humidity;BME280_pressure;Samples;Min_cycle;Max_cycle;Signal;HPM_P1;HPM_P2
2022/09/10 00:00:46;;;;;;;18.07;6.67;;;;;;;12.95;100.00;100832.56;5055048;28;20024;-88
2022/09/10 00:03:11;;;;;;;18.10;6.87;;;;;;;12.99;100.00;100830.91;5052802;28;20025;-87
2022/09/10 00:05:42;;;;;;;25.38;6.93;;;;;;;12.98;100.00;100823.91;5053031;28;20041;-87
2022/09/10 00:08:07;;;;;;;19.60;7.37;;;;;;;13.02;100.00;100828.50;5052760;28;20525;-88
2022/09/10 00:10:44;;;;;;;24.25;9.65;;;;;;;13.06;100.00;100831.44;5051937;28;20447;-87
2022/09/10 00:13:11;;;;;;;25.65;9.90;;;;;;;13.03;100.00;100813.97;5034251;28;20033;-87
2022/09/10 00:15:42;;;;;;;20.58;9.63;;;;;;;13.08;100.00;100818.53;5052212;28;20024;-88
2022/09/10 00:18:09;;;;;;;23.27;10.17;;;;;;;13.06;100.00;100812.59;5050474;28;20032;-88
2022/09/10 00:20:49;;;;;;;21.60;9.13;;;;;;;13.02;100.00;100814.22;5053282;28;20299;-88
2022/09/10 00:23:17;;;;;;;20.42;8.45;;;;;;;13.08;100.00;100825.78;5053223;28;20017;-87
2022/09/10 00:25:45;;;;;;;18.70;6.53;;;;;;;13.05;100.00;100819.06;5037105;28;20113;-86
2022/09/10 00:28:10;;;;;;;16.70;5.90;;;;;;;13.02;100.00;100814.22;5052094;28;20029;-87
2022/09/10 00:30:40;;;;;;;18.00;5.90;;;;;;;13.01;100.00;100818.00;5051828;28;20036;-88
2022/09/10 00:33:05;;;;;;;18.97;6.43;;;;;;;13.02;100.00;100822.31;5051884;28;20036;-87
2022/09/10 00:35:35;;;;;;;20.47;5.97;;;;;;;12.98;100.00;100823.91;5051707;28;20307;-87
2022/09/10 00:38:00;;;;;;;23.25;6.40;;;;;;;12.94;100.00;100818.28;5051906;28;20025;-88
2022/09/10 00:40:26;;;;;;;19.87;6.03;;;;;;;12.96;100.00;100828.78;5048539;28;20112;-87
2022/09/10 00:42:52;;;;;;;14.38;6.93;;;;;;;12.95;100.00;100822.59;5051988;28;20029;-87
2022/09/10 00:45:21;;;;;;;21.63;7.20;;;;;;;12.91;100.00;100812.66;5052189;28;20523;-87
2022/09/10 00:47:49;;;;;;;16.75;8.10;;;;;;;12.91;100.00;100808.06;5050534;28;20048;-87
2022/09/10 00:50:22;;;;;;;23.92;8.70;;;;;;;12.91;100.00;100809.97;5051561;28;20029;-87
2022/09/10 00:52:50;;;;;;;15.73;6.90;;;;;;;12.90;100.00;100811.06;5051476;28;20036;-87
2022/09/10 00:55:16;;;;;;;20.48;7.35;;;;;;;12.88;100.00;100811.31;5051922;28;20029;-87
2022/09/10 00:57:44;;;;;;;20.03;7.87;;;;;;;12.94;100.00;100817.50;5052001;28;20036;-87
2022/09/10 01:00:12;;;;;;;17.23;7.93;;;;;;;12.96;100.00;100823.41;5051304;28;20291;-88
2022/09/10 01:02:38;;;;;;;19.58;7.65;;;;;;;12.93;100.00;100815.88;5051903;28;20427;-87
2022/09/10 01:05:06;;;;;;;21.05;8.32;;;;;;;12.91;100.00;100807.28;5051571;28;20024;-87
2022/09/10 01:07:32;;;;;;;23.77;7.75;;;;;;;12.97;100.00;100822.31;5050954;28;20041;-87
2022/09/10 01:10:02;;;;;;;25.70;8.93;;;;;;;12.97;100.00;100820.44;5050805;28;20033;-87
2022/09/10 01:12:34;;;;;;;22.80;8.63;;;;;;;13.02;100.00;100835.75;5051842;28;20021;-87
2022/09/10 01:15:29;;;;;;;27.55;8.77;;;;;;;13.03;100.00;100824.72;5051078;28;20036;-88
2022/09/10 01:18:02;;;;;;;20.40;9.73;;;;;;;13.06;100.00;100830.63;5050843;28;20048;-88
2022/09/10 01:20:50;;;;;;;29.83;11.23;;;;;;;13.13;100.00;100834.66;5050722;28;20276;-87
2022/09/10 01:23:40;;;;;;;28.88;12.25;;;;;;;13.17;100.00;100837.59;5051551;28;20025;-87
2022/09/10 01:26:18;;;;;;;32.83;12.20;;;;;;;13.22;100.00;100831.38;5051215;28;20466;-87
2022/09/10 01:29:04;;;;;;;25.45;11.45;;;;;;;13.24;100.00;100835.38;5050185;28;20420;-87
2022/09/10 01:31:32;;;;;;;27.00;11.15;;;;;;;13.26;100.00;100835.13;5050829;28;20056;-88
2022/09/10 01:34:15;;;;;;;26.10;11.02;;;;;;;13.22;100.00;100829.50;5050334;28;20025;-87
2022/09/10 01:36:46;;;;;;;24.75;11.27;;;;;;;13.28;100.00;100838.34;5050399;28;20041;-87
2022/09/10 01:39:14;;;;;;;22.90;12.10;;;;;;;13.27;100.00;100826.78;5049238;28;20090;-87
2022/09/10 01:41:40;;;;;;;32.00;12.93;;;;;;;13.24;100.00;100823.84;5049943;28;20039;-87
2022/09/10 01:44:10;;;;;;;33.00;15.33;;;;;;;13.28;100.00;100827.59;5050859;28;20021;-86
2022/09/10 01:46:56;;;;;;;26.88;15.25;;;;;;;13.28;100.00;100831.06;5051049;28;20017;-86
2022/09/10 01:49:37;;;;;;;32.35;14.35;;;;;;;13.20;100.00;100820.09;5050881;28;20056;-87
2022/09/10 01:52:37;;;;;;;37.65;14.70;;;;;;;13.24;100.00;100829.22;5048382;28;20044;-87
2022/09/10 02:00:16;;;;;;;37.03;14.87;;;;;;;13.35;100.00;100836.16;5515371;22;20322;-87
2022/09/10 02:02:44;;;;;;;34.85;15.13;;;;;;;13.39;100.00;100831.84;5050680;28;20040;-87
2022/09/10 02:05:10;;;;;;;39.22;15.48;;;;;;;13.40;100.00;100825.41;5049380;28;20435;-87
2022/09/10 02:07:36;;;;;;;38.28;17.25;;;;;;;13.39;100.00;100812.22;5050576;28;20025;-87
2022/09/10 02:10:05;;;;;;;34.85;16.40;;;;;;;13.45;100.00;100825.38;5048497;28;20043;-87
2022/09/10 02:12:30;;;;;;;34.47;16.10;;;;;;;13.44;100.00;100823.78;5047715;28;20036;-87
2022/09/10 02:14:57;;;;;;;48.50;16.30;;;;;;;13.48;100.00;100829.41;5050068;28;20096;-87
2022/09/10 02:17:29;;;;;;;40.55;17.25;;;;;;;13.51;100.00;100825.38;5050507;28;20369;-87
2022/09/10 02:19:57;;;;;;;38.65;17.80;;;;;;;13.53;100.00;100824.00;5047854;28;20032;-87
2022/09/10 02:22:23;;;;;;;38.08;16.83;;;;;;;13.55;100.00;100815.63;5050363;28;20024;-87
2022/09/10 02:24:49;;;;;;;36.53;16.73;;;;;;;13.56;100.00;100818.06;5032273;28;20029;-87
2022/09/10 02:27:15;;;;;;;44.30;17.30;;;;;;;13.59;100.00;100822.06;5047730;28;20021;-87
2022/09/10 02:29:40;;;;;;;47.23;17.20;;;;;;;13.59;100.00;100809.44;5049302;28;20660;-87
2022/09/10 02:32:07;;;;;;;45.17;18.38;;;;;;;13.60;100.00;100812.91;5031698;28;20103;-88
2022/09/10 02:34:33;;;;;;;51.22;18.15;;;;;;;13.62;100.00;100816.16;5049517;28;20024;-88
2022/09/10 02:36:58;;;;;;;40.15;17.08;;;;;;;13.60;100.00;100811.03;5032063;28;20025;-87
2022/09/10 02:39:24;;;;;;;45.10;18.47;;;;;;;13.63;100.00;100812.38;5050115;28;20487;-87
2022/09/10 02:41:49;;;;;;;49.20;18.33;;;;;;;13.59;100.00;100804.06;5049460;28;20071;-87
2022/09/10 02:44:15;;;;;;;53.13;20.83;;;;;;;13.68;100.00;100809.66;5049152;28;20063;-87
2022/09/10 02:46:40;;;;;;;41.53;17.93;;;;;;;13.61;100.00;100807.25;5050263;28;20044;-87
2022/09/10 02:49:05;;;;;;;50.23;20.23;;;;;;;13.65;100.00;100804.00;5048536;28;20031;-87
2022/09/10 02:51:31;;;;;;;45.77;18.13;;;;;;;13.59;100.00;100808.63;5049452;28;20028;-87
2022/09/10 02:53:56;;;;;;;42.57;18.73;;;;;;;13.56;100.00;100803.78;5050071;28;20094;-87
2022/09/10 02:56:22;;;;;;;44.20;18.80;;;;;;;13.60;100.00;100808.31;5031718;28;20028;-87
2022/09/10 02:58:49;;;;;;;45.37;17.80;;;;;;;13.67;100.00;100818.81;5049658;28;20055;-87
2022/09/10 03:01:18;;;;;;;48.73;17.77;;;;;;;13.60;100.00;100799.47;5046488;28;20307;-87
2022/09/10 03:03:49;;;;;;;44.92;17.20;;;;;;;13.66;100.00;100816.38;5031662;28;20449;-87
2022/09/10 03:06:14;;;;;;;41.28;17.52;;;;;;;13.57;100.00;100798.13;5031937;28;20461;-87
2022/09/10 03:08:40;;;;;;;42.17;16.23;;;;;;;13.64;100.00;100803.22;5049747;28;20048;-87
2022/09/10 03:11:05;;;;;;;43.43;16.30;;;;;;;13.61;100.00;100793.00;5049201;28;20056;-86
2022/09/10 03:13:31;;;;;;;40.90;15.27;;;;;;;13.72;100.00;100810.69;5048810;28;20460;-86
2022/09/10 03:15:58;;;;;;;42.03;14.77;;;;;;;13.73;100.00;100815.00;5047941;28;20032;-87
2022/09/10 03:18:24;;;;;;;40.63;16.08;;;;;;;13.74;100.00;100813.91;5030448;28;20108;-87
2022/09/10 03:20:50;;;;;;;42.30;15.57;;;;;;;13.76;100.00;100817.13;5030990;28;20115;-87
2022/09/10 03:23:17;;;;;;;41.10;17.05;;;;;;;13.77;100.00;100816.03;5049935;28;20071;-87
2022/09/10 03:25:42;;;;;;;39.60;17.58;;;;;;;13.71;100.00;100809.06;5049659;28;20049;-87
2022/09/10 03:28:09;;;;;;;49.27;18.80;;;;;;;13.76;100.00;100817.13;5049491;28;20053;-87
2022/09/10 03:30:35;;;;;;;47.25;17.90;;;;;;;13.80;100.00;100814.66;5048115;28;20071;-87
2022/09/10 03:33:01;;;;;;;40.83;17.10;;;;;;;13.81;100.00;100812.78;5047360;28;20079;-87
2022/09/10 03:35:26;;;;;;;56.38;17.70;;;;;;;13.76;100.00;100806.34;5049201;28;20024;-87
2022/09/10 03:37:52;;;;;;;42.83;18.20;;;;;;;13.81;100.00;100812.78;5049290;28;20029;-87
2022/09/10 03:40:18;;;;;;;51.23;19.17;;;;;;;13.77;100.00;100813.34;5049181;28;20040;-87
2022/09/10 03:42:43;;;;;;;50.08;19.00;;;;;;;13.76;100.00;100806.34;5049337;28;20066;-87
2022/09/10 03:45:09;;;;;;;43.33;18.20;;;;;;;13.82;100.00;100815.19;5048348;28;20032;-87
2022/09/10 03:47:36;;;;;;;56.08;19.95;;;;;;;13.78;100.00;100811.47;5049426;28;20039;-87
2022/09/10 03:50:03;;;;;;;52.65;20.98;;;;;;;13.65;100.00;100790.53;5046560;28;20122;-88
2022/09/10 03:52:28;;;;;;;57.43;20.80;;;;;;;13.80;100.00;100811.19;5048481;28;20456;-88
2022/09/10 03:54:54;;;;;;;50.20;21.03;;;;;;;13.79;100.00;100810.38;5048969;28;20318;-87
2022/09/10 03:57:19;;;;;;;47.43;20.97;;;;;;;13.77;100.00;100801.78;5049490;28;20740;-87
2022/09/10 03:59:44;;;;;;;46.00;20.07;;;;;;;13.71;100.00;100792.13;5047842;28;20400;-87
2022/09/10 04:02:10;;;;;;;45.37;20.17;;;;;;;13.76;100.00;100798.28;5048808;28;20032;-87
2022/09/10 04:04:38;;;;;;;41.50;20.50;;;;;;;13.81;100.00;100802.03;5049294;28;20298;-87
2022/09/10 04:07:04;;;;;;;54.03;21.20;;;;;;;13.84;100.00;100799.56;5045521;28;20545;-87
2022/09/10 04:09:31;;;;;;;48.70;19.90;;;;;;;13.82;100.00;100807.13;5049376;28;20295;-87
2022/09/10 04:11:57;;;;;;;52.63;22.33;;;;;;;13.75;100.00;100788.59;5048024;28;20027;-86
2022/09/10 04:14:22;;;;;;;42.95;19.27;;;;;;;13.73;100.00;100782.66;5048760;28;20017;-87
2022/09/10 04:16:48;;;;;;;48.13;19.67;;;;;;;13.74;100.00;100786.97;5051408;28;20449;-87
2022/09/10 04:19:13;;;;;;;45.57;20.53;;;;;;;13.71;100.00;100771.38;5052831;28;20063;-87
2022/09/10 04:21:38;;;;;;;44.53;18.87;;;;;;;13.81;100.00;100800.13;5050627;28;20033;-87
2022/09/10 04:24:04;;;;;;;46.00;19.00;;;;;;;13.78;100.00;100793.41;5051095;28;20287;-87
2022/09/10 04:26:29;;;;;;;48.13;18.77;;;;;;;13.81;100.00;100799.34;5051854;28;20428;-87
2022/09/10 04:28:55;;;;;;;52.57;19.13;;;;;;;13.81;100.00;100794.72;5052446;28;20496;-87
2022/09/10 04:31:20;;;;;;;50.57;20.20;;;;;;;13.82;100.00;100788.25;5033701;28;20017;-87
2022/09/10 04:33:45;;;;;;;46.15;19.63;;;;;;;13.86;100.00;100799.31;5051895;28;20107;-87
2022/09/10 04:36:11;;;;;;;47.93;20.97;;;;;;;13.85;100.00;100793.09;5051949;28;20035;-87
2022/09/10 04:38:39;;;;;;;43.95;18.58;;;;;;;13.84;100.00;100788.00;5049821;28;20420;-87
2022/09/10 04:41:05;;;;;;;50.80;18.33;;;;;;;13.88;100.00;100797.09;5050058;28;20539;-87
2022/09/10 04:43:30;;;;;;;47.40;18.70;;;;;;;13.88;100.00;100791.72;5052409;28;20286;-87
2022/09/10 04:45:56;;;;;;;38.13;18.90;;;;;;;13.81;100.00;100789.34;5051672;28;20052;-87
2022/09/10 04:48:22;;;;;;;46.75;18.98;;;;;;;13.88;100.00;100799.81;5051758;28;20032;-87
2022/09/10 04:50:47;;;;;;;49.78;21.25;;;;;;;13.87;100.00;100806.31;5051648;28;20465;-87
2022/09/10 04:53:13;;;;;;;51.17;20.97;;;;;;;13.84;100.00;100801.47;5051875;28;20036;-87
2022/09/10 04:55:41;;;;;;;47.30;21.50;;;;;;;13.84;100.00;100801.47;5049395;28;20063;-87
2022/09/10 04:58:07;;;;;;;43.03;20.45;;;;;;;13.80;100.00;100792.34;5051666;28;20104;-87
2022/09/10 05:00:32;;;;;;;52.33;21.30;;;;;;;13.86;100.00;100799.31;5051008;28;20511;-87
2022/09/10 05:02:57;;;;;;;48.73;20.77;;;;;;;13.85;100.00;100803.88;5051523;28;20465;-87
2022/09/10 05:05:22;;;;;;;54.10;21.60;;;;;;;13.82;100.00;100798.25;5052121;28;20021;-87
2022/09/10 05:07:48;;;;;;;52.07;21.23;;;;;;;13.78;100.00;100793.41;5051024;28;20182;-87
2022/09/10 05:10:14;;;;;;;52.30;22.43;;;;;;;13.84;100.00;100802.25;5050446;28;20132;-87
2022/09/10 05:12:39;;;;;;;59.28;22.08;;;;;;;13.87;100.00;100807.09;5049985;28;20053;-87
2022/09/10 05:17:33;;;;;;;55.75;22.10;;;;;;;13.85;100.00;100792.31;5029010;28;20050;-87
2022/09/10 05:19:58;;;;;;;60.38;22.73;;;;;;;13.90;100.00;100800.31;5031068;28;20025;-88
2022/09/10 05:22:24;;;;;;;58.25;23.63;;;;;;;13.89;100.00;100802.22;5030263;28;20025;-87
2022/09/10 05:24:49;;;;;;;60.00;24.00;;;;;;;13.91;100.00;100800.06;5031265;28;20025;-87
2022/09/10 05:27:15;;;;;;;51.67;22.23;;;;;;;13.93;100.00;100797.91;5031399;28;20105;-89
2022/09/10 05:29:41;;;;;;;52.77;22.93;;;;;;;13.99;100.00;100801.34;5011431;28;20076;-90
2022/09/10 05:32:08;;;;;;;61.50;23.48;;;;;;;14.01;100.00;100804.56;5021121;28;20037;-90
2022/09/10 05:34:33;;;;;;;57.83;24.17;;;;;;;14.03;100.00;100804.28;5024098;28;20028;-91
2022/09/10 05:36:59;;;;;;;57.77;21.87;;;;;;;14.06;100.00;100809.09;5046930;28;20037;-90
2022/09/10 05:39:24;;;;;;;57.83;21.20;;;;;;;14.00;100.00;100794.88;5049382;28;20116;-90
2022/09/10 05:41:50;;;;;;;59.50;22.37;;;;;;;14.03;100.00;100794.31;5041371;28;20060;-90
2022/09/10 05:44:16;;;;;;;50.77;23.17;;;;;;;14.03;100.00;100788.13;5031458;28;20488;-90
2022/09/10 05:46:41;;;;;;;53.08;22.77;;;;;;;14.09;100.00;100803.16;5031071;28;20112;-89
2022/09/10 05:49:07;;;;;;;63.00;25.00;;;;;;;14.11;100.00;100809.06;5031154;28;20057;-89
2022/09/10 05:51:33;;;;;;;53.42;22.95;;;;;;;14.07;100.00;100803.44;5012857;28;20022;-90
2022/09/10 05:53:59;;;;;;;54.03;22.40;;;;;;;14.15;100.00;100810.09;5032268;28;20033;-89
2022/09/10 05:56:24;;;;;;;58.55;23.08;;;;;;;14.21;100.00;100808.19;5048745;28;20087;-86
2022/09/10 05:58:49;;;;;;;54.88;22.75;;;;;;;14.24;100.00;100800.34;5050317;28;20380;-86
2022/09/10 06:01:15;;;;;;;51.67;22.80;;;;;;;14.24;100.00;100796.84;5050267;28;20044;-87
2022/09/10 06:03:41;;;;;;;54.60;24.33;;;;;;;14.18;100.00;100795.28;5050768;28;20029;-87
2022/09/10 06:06:07;;;;;;;55.20;22.65;;;;;;;14.23;100.00;100806.81;5050702;28;20021;-87
2022/09/10 06:08:33;;;;;;;59.80;24.90;;;;;;;14.27;100.00;100811.63;5047894;28;20029;-86
2022/09/10 06:11:04;;;;;;;51.08;22.48;;;;;;;14.26;100.00;100812.72;5021466;28;20029;-86
2022/09/10 06:13:31;;;;;;;51.70;23.13;;;;;;;14.24;100.00;100805.72;5050445;28;20025;-85
2022/09/10 06:15:56;;;;;;;55.17;22.70;;;;;;;14.30;100.00;100808.38;5049678;28;20025;-86
2022/09/10 06:18:21;;;;;;;52.13;22.93;;;;;;;14.37;100.00;100815.03;5042436;28;20079;-86
2022/09/10 06:20:47;;;;;;;54.88;23.42;;;;;;;14.43;100.00;100812.28;5040193;28;20026;-86
2022/09/10 06:23:17;;;;;;;50.63;24.17;;;;;;;14.45;100.00;100812.81;5030547;28;20033;-85
2022/09/10 06:25:43;;;;;;;47.17;22.10;;;;;;;14.49;100.00;100816.56;5018121;28;20396;-87
2022/09/10 06:28:09;;;;;;;47.08;20.75;;;;;;;14.46;100.00;100809.84;5050148;28;20058;-91
2022/09/10 06:30:34;;;;;;;40.30;19.33;;;;;;;14.41;100.00;100815.28;5049972;28;20045;-90
2022/09/10 06:33:00;;;;;;;42.03;20.45;;;;;;;14.32;100.00;100809.69;5042607;28;20488;-89
2022/09/10 06:35:26;;;;;;;41.27;19.27;;;;;;;14.35;100.00;100819.09;5030124;28;20055;-90
2022/09/10 06:37:52;;;;;;;37.73;18.97;;;;;;;14.28;100.00;100814.03;5029394;28;20022;-89
2022/09/10 06:40:17;;;;;;;41.38;20.20;;;;;;;14.33;100.00;100824.00;5046185;28;20035;-89
2022/09/10 06:42:43;;;;;;;40.75;20.75;;;;;;;14.32;100.00;100823.16;5035362;28;20128;-89
2022/09/10 06:45:08;;;;;;;48.70;20.60;;;;;;;14.33;100.00;100830.16;5049812;28;20029;-90
2022/09/10 06:47:34;;;;;;;52.23;22.87;;;;;;;14.35;100.00;100827.19;5049717;28;20036;-88
2022/09/10 06:49:59;;;;;;;48.17;22.37;;;;;;;14.28;100.00;100805.16;5049088;28;20036;-89
2022/09/10 06:52:27;;;;;;;55.23;24.20;;;;;;;14.38;100.00;100830.13;5047971;28;20041;-90
2022/09/10 06:54:52;;;;;;;58.88;23.92;;;;;;;14.37;100.00;100825.84;5049319;28;20013;-89
2022/09/10 06:57:18;;;;;;;56.13;24.47;;;;;;;14.37;100.00;100816.91;5049872;28;20029;-89
2022/09/10 06:59:43;;;;;;;56.10;25.60;;;;;;;14.42;100.00;100816.09;5045866;28;20048;-89
2022/09/10 07:02:09;;;;;;;59.17;25.00;;;;;;;14.41;100.00;100825.28;5029051;28;20064;-89
2022/09/10 07:04:34;;;;;;;50.47;23.37;;;;;;;14.45;100.00;100823.59;5041849;28;20056;-88
2022/09/10 07:06:59;;;;;;;50.08;25.38;;;;;;;14.39;100.00;100818.28;5029669;28;20040;-88
2022/09/10 07:09:25;;;;;;;58.80;25.43;;;;;;;14.44;100.00;100825.50;5029926;28;20021;-89
2022/09/10 07:11:50;;;;;;;53.37;25.03;;;;;;;14.48;100.00;100825.72;5041771;28;20281;-89
2022/09/10 07:14:16;;;;;;;53.40;25.03;;;;;;;14.50;100.00;100826.25;5010110;28;20461;-89
2022/09/10 07:16:43;;;;;;;53.55;24.90;;;;;;;14.52;100.00;100819.47;5004205;28;20025;-89
2022/09/10 07:19:08;;;;;;;59.35;25.88;;;;;;;14.59;100.00;100824.56;5029822;28;20029;-89
2022/09/10 07:21:36;;;;;;;57.53;26.30;;;;;;;14.64;100.00;100827.19;5027904;28;20374;-90
2022/09/10 07:24:03;;;;;;;51.53;26.25;;;;;;;14.64;100.00;100829.88;5030632;28;20021;-91
2022/09/10 07:26:28;;;;;;;57.75;25.52;;;;;;;14.62;100.00;100834.75;5048600;28;20116;-90
2022/09/10 07:28:54;;;;;;;52.63;23.10;;;;;;;14.70;100.00;100838.75;5045654;28;20511;-90
2022/09/10 07:31:22;;;;;;;46.40;22.00;;;;;;;14.62;100.00;100832.06;5026686;28;20057;-87
2022/09/10 07:33:49;;;;;;;43.83;22.38;;;;;;;14.68;100.00;100849.84;5036195;28;20029;-89
2022/09/10 07:36:15;;;;;;;45.35;23.08;;;;;;;14.71;100.00;100851.13;5049528;28;20435;-87
2022/09/10 07:38:41;;;;;;;47.30;23.60;;;;;;;14.71;100.00;100853.06;5034532;28;20025;-89
2022/09/10 07:41:12;;;;;;;48.22;23.73;;;;;;;14.71;100.00;100850.34;5028656;28;20076;-87
2022/09/10 07:43:38;;;;;;;50.70;25.00;;;;;;;14.65;100.00;100844.97;5032909;28;20029;-88
2022/09/10 07:46:05;;;;;;;52.83;25.08;;;;;;;14.72;100.00;100841.97;5048895;28;20526;-87
2022/09/10 07:48:30;;;;;;;56.80;27.20;;;;;;;14.78;100.00;100830.03;5030692;28;20028;-89
2022/09/10 07:51:03;;;;;;;49.90;26.20;;;;;;;14.90;100.00;100843.13;5034623;28;20299;-87
2022/09/10 07:53:29;;;;;;;53.70;27.52;;;;;;;14.89;100.00;100833.44;5033027;28;20026;-88
2022/09/10 07:56:06;;;;;;;54.77;28.90;;;;;;;15.06;100.00;100853.75;5032988;28;20018;-87
2022/09/10 07:58:34;;;;;;;50.05;27.58;;;;;;;14.99;100.00;100851.41;5033414;28;20136;-88
2022/09/10 08:01:01;;;;;;;49.17;27.15;;;;;;;15.14;100.00;100863.94;5013947;28;20480;-88
2022/09/10 08:03:27;;;;;;;57.15;28.80;;;;;;;15.20;100.00;100853.88;5024452;28;20033;-88
2022/09/10 08:05:53;;;;;;;50.85;28.40;;;;;;;15.27;100.00;100874.03;5052386;28;20036;-87
2022/09/10 08:08:19;;;;;;;48.55;27.75;;;;;;;15.31;100.00;100873.47;5042548;28;20116;-88
2022/09/10 08:10:46;;;;;;;48.33;27.67;;;;;;;15.33;100.00;100876.66;5034873;28;20108;-88
2022/09/10 08:13:11;;;;;;;48.13;27.53;;;;;;;15.37;100.00;100873.09;5032670;28;20102;-89
2022/09/10 08:15:43;;;;;;;48.83;28.92;;;;;;;15.51;100.00;100872.38;5033347;28;20484;-88
2022/09/10 08:18:09;;;;;;;51.85;29.40;;;;;;;15.65;100.00;100869.78;5031863;28;20026;-87
2022/09/10 08:20:34;;;;;;;53.78;30.13;;;;;;;15.83;100.00;100873.56;5032074;28;20033;-88
2022/09/10 08:23:01;;;;;;;54.93;31.90;;;;;;;15.97;100.00;100881.78;5032532;28;20022;-88
2022/09/10 08:25:26;;;;;;;49.60;29.88;;;;;;;16.01;100.00;100889.00;5032679;28;20104;-89
2022/09/10 08:27:51;;;;;;;40.73;27.70;;;;;;;16.10;100.00;100896.47;5029336;28;20037;-88
2022/09/10 08:30:17;;;;;;;45.63;28.13;;;;;;;16.09;100.00;100892.94;5031147;28;20037;-88
2022/09/10 08:32:42;;;;;;;36.27;25.20;;;;;;;15.96;100.00;100902.63;5030337;28;20559;-87
2022/09/10 08:35:07;;;;;;;34.37;23.93;;;;;;;15.95;100.00;100913.69;5032077;28;20022;-87
2022/09/10 08:37:33;;;;;;;31.17;23.30;;;;;;;15.86;100.00;100900.03;5032265;28;20670;-88
2022/09/10 08:39:58;;;;;;;34.50;24.73;;;;;;;15.97;100.00;100911.50;5013671;28;20044;-88
2022/09/10 08:42:31;;;;;;;41.47;25.50;;;;;;;16.08;100.00;100912.97;5032577;28;20031;-88
2022/09/10 08:45:13;;;;;;;41.40;26.83;;;;;;;16.26;100.00;100921.34;5030661;28;20037;-87
2022/09/10 08:47:57;;;;;;;36.35;25.35;;;;;;;16.34;100.00;100923.41;5032034;28;20032;-89
2022/09/10 08:50:48;;;;;;;30.43;22.77;;;;;;;16.42;100.00;100922.75;5018826;28;20543;-88
2022/09/10 08:53:22;;;;;;;31.83;23.47;;;;;;;16.60;100.00;100928.41;5031979;28;20747;-85
2022/09/10 08:55:49;;;;;;;26.67;19.27;;;;;;;16.56;100.00;100930.88;5030058;28;20035;-87
2022/09/10 08:58:34;;;;;;;27.33;19.77;;;;;;;16.62;100.00;100939.72;5030124;28;20029;-87
2022/09/10 09:01:03;;;;;;;22.63;18.55;;;;;;;16.64;100.00;100938.34;5029907;28;20037;-87
2022/09/10 09:03:44;;;;;;;21.40;17.92;;;;;;;16.70;100.00;100939.03;5030929;28;20549;-86
2022/09/10 09:06:43;;;;;;;23.05;17.35;;;;;;;16.73;100.00;100943.88;5031492;28;20021;-86
2022/09/10 09:09:10;;;;;;;20.95;18.00;;;;;;;16.53;100.00;100936.88;5021090;28;20124;-87
2022/09/10 09:12:09;;;;;;;20.13;15.90;;;;;;;16.32;100.00;100941.81;5030911;28;20029;-88
2022/09/10 09:14:44;;;;;;;19.60;16.40;;;;;;;16.18;100.00;100950.66;5032766;28;20401;-86
2022/09/10 09:17:29;;;;;;;21.50;16.23;;;;;;;16.00;100.00;100933.34;5031637;28;20095;-86
2022/09/10 09:20:14;;;;;;;19.97;16.63;;;;;;;16.03;100.00;100940.06;5030731;28;20328;-86
2022/09/10 09:23:22;;;;;;;22.35;17.50;;;;;;;16.01;100.00;100953.06;5031273;28;20170;-86
2022/09/10 09:26:14;;;;;;;29.05;20.50;;;;;;;16.01;100.00;100942.25;5027243;28;20077;-87
2022/09/10 09:28:51;;;;;;;27.02;19.85;;;;;;;15.88;100.00;100941.91;5033569;28;20613;-88
2022/09/10 09:31:24;;;;;;;29.27;20.85;;;;;;;15.96;100.00;100937.75;5052049;28;20037;-87
2022/09/10 09:33:54;;;;;;;28.48;20.48;;;;;;;16.04;100.00;100955.19;5051133;28;20112;-87
2022/09/10 09:36:29;;;;;;;29.10;22.48;;;;;;;16.08;100.00;100947.31;5045774;28;20025;-86
2022/09/10 09:38:55;;;;;;;31.95;23.40;;;;;;;16.26;100.00;100951.09;5033028;28;20037;-86
2022/09/10 09:41:38;;;;;;;33.20;24.13;;;;;;;16.41;100.00;100958.16;5029308;28;20029;-86
2022/09/10 09:44:26;;;;;;;33.45;24.63;;;;;;;16.53;100.00;100955.03;5030965;28;20035;-86
2022/09/10 09:46:51;;;;;;;35.67;23.50;;;;;;;16.58;100.00;100953.03;5030787;28;20114;-86
2022/09/10 09:49:16;;;;;;;32.40;23.30;;;;;;;16.63;100.00;100954.84;5031140;28;20041;-86
2022/09/10 09:51:47;;;;;;;29.33;22.40;;;;;;;16.68;100.00;100957.47;5030457;28;20060;-87
2022/09/10 09:54:26;;;;;;;29.03;20.83;;;;;;;16.60;100.00;100955.47;5031013;28;20024;-86
2022/09/10 09:56:57;;;;;;;28.00;21.27;;;;;;;16.65;100.00;100952.66;5033112;28;20052;-87
2022/09/10 09:59:28;;;;;;;28.27;20.30;;;;;;;16.65;100.00;100952.66;5049907;28;20381;-86
2022/09/10 10:02:24;;;;;;;26.35;20.38;;;;;;;16.68;100.00;100954.75;5048600;28;20543;-86
2022/09/10 10:05:23;;;;;;;24.40;19.45;;;;;;;16.80;100.00;100951.59;5033584;28;20135;-86
2022/09/10 10:07:49;;;;;;;29.38;19.50;;;;;;;16.80;100.00;100936.16;5050196;28;20035;-85
2022/09/10 10:10:26;;;;;;;26.20;19.48;;;;;;;16.85;100.00;100939.88;5050160;28;20396;-86
2022/09/10 10:12:53;;;;;;;29.50;19.33;;;;;;;16.90;100.00;100947.91;5046304;28;20025;-87
2022/09/10 10:15:39;;;;;;;26.20;18.63;;;;;;;16.97;100.00;100951.06;5050222;28;20079;-86
2022/09/10 10:18:20;;;;;;;27.90;19.60;;;;;;;17.18;100.00;100970.44;5050033;28;20284;-86
2022/09/10 10:20:45;;;;;;;32.00;22.45;;;;;;;17.44;100.00;100971.88;5050096;28;20028;-86
2022/09/10 10:23:36;;;;;;;32.47;24.67;;;;;;;17.94;100.00;100985.47;5050326;28;20473;-86
2022/09/10 10:26:15;;;;;;;35.00;23.43;;;;;;;18.16;100.00;100964.97;5049777;28;20492;-86
2022/09/10 10:28:45;;;;;;;28.88;20.90;;;;;;;18.26;100.00;100967.44;5047701;28;20483;-87
2022/09/10 10:31:11;;;;;;;22.65;16.42;;;;;;;18.26;100.00;100964.72;5049158;28;20029;-86
2022/09/10 10:33:48;;;;;;;17.35;14.85;;;;;;;18.25;100.00;100965.88;5032222;28;20024;-86
2022/09/10 10:36:25;;;;;;;20.45;14.73;;;;;;;18.04;100.00;100973.63;5031882;28;20017;-87
2022/09/10 10:39:06;;;;;;;18.85;13.60;;;;;;;17.67;100.00;100965.44;5032039;28;20021;-87
2022/09/10 10:41:53;;;;;;;15.73;12.48;;;;;;;17.50;100.00;100976.09;5049649;28;20040;-86
2022/09/10 10:44:41;;;;;;;15.75;12.50;;;;;;;17.31;100.00;100971.56;5050085;28;20583;-86
2022/09/10 10:47:29;;;;;;;16.27;13.10;;;;;;;17.17;100.00;100981.56;5013722;28;20029;-86
2022/09/10 10:50:07;;;;;;;19.17;13.17;;;;;;;17.00;100.00;100979.44;5029343;28;20025;-87
2022/09/10 10:52:45;;;;;;;26.43;14.97;;;;;;;16.95;100.00;100978.41;5012147;28;20334;-85
2022/09/10 10:55:22;;;;;;;17.63;14.07;;;;;;;16.92;100.00;100978.19;5029921;28;20025;-86
2022/09/10 10:58:10;;;;;;;19.63;15.38;;;;;;;16.87;100.00;100986.38;5029775;28;20029;-85
2022/09/10 11:00:45;;;;;;;23.60;15.25;;;;;;;16.77;100.00;100980.06;5020620;28;20040;-85
2022/09/10 11:03:18;;;;;;;21.17;14.70;;;;;;;16.81;100.00;100988.38;5049245;28;20036;-85
2022/09/10 11:05:57;;;;;;;19.88;13.55;;;;;;;16.73;100.00;100976.34;5032256;28;20082;-86
2022/09/10 11:08:30;;;;;;;17.55;13.57;;;;;;;16.71;100.00;100983.13;5049626;28;20040;-86
2022/09/10 11:11:02;;;;;;;28.77;15.00;;;;;;;16.70;100.00;100982.34;5048900;28;20484;-86
2022/09/10 11:13:43;;;;;;;29.35;13.55;;;;;;;16.58;100.00;100977.38;5049562;28;20021;-87
2022/09/10 11:16:18;;;;;;;30.73;13.93;;;;;;;16.58;100.00;100984.69;5042968;28;20036;-88
2022/09/10 11:18:52;;;;;;;24.47;13.77;;;;;;;16.49;100.00;100982.66;5050338;28;20276;-86
2022/09/10 11:21:34;;;;;;;22.95;12.73;;;;;;;16.43;100.00;100978.41;5049356;28;20040;-87